<?xml version='1.0' encoding='utf-8'?>
<gpx xmlns="http://www.topografix.com/GPX/1/1" xmlns:om="http://www.oruxmaps.com/oruxmapsextensions/1/0" xmlns:xsi="http://www.w3.org/2001/XMLSchema-instance" creator="OruxMaps v.6.0.7 Donate" version="1.1" xsi:schemaLocation="http://www.topografix.com/GPX/1/1 http://www.topografix.com/GPX/1/1/gpx.xsd">
<metadata>
<name>2015-04-30 10:00</name>
<desc />
<link href="http://www.oruxmaps.com">
<text>OruxMaps</text>
</link>
<time>2015-04-30T07:00:21Z</time><bounds maxlat="34.9675771" maxlon="33.0451367" minlat="34.6705108" minlon="32.8270214" />
</metadata>
<trk>
<name>2015-04-30 10:00</name>
<desc>&lt;h1&gt;OruxMaps&lt;/h1&gt;&lt;br /&gt;&lt;hr align="center" width="480" style="height: 2px; width: 517px"/&gt;&lt;h2&gt;Name: 2015-04-30 10:00&lt;/h2&gt;&lt;br /&gt;&lt;p&gt;Start time: 04/30/2015 10:00&lt;/p&gt;&lt;p&gt;Finish time: 04/30/2015 17:30&lt;/p&gt;&lt;p&gt;Distance: 66.2km (07:30)&lt;/p&gt;&lt;p&gt;Moving time: 05:03&lt;/p&gt;&lt;p&gt;Average speed: 8.8km/h&lt;/p&gt;&lt;p&gt;Avg. Speed Mov.: 13.1km/h&lt;/p&gt;&lt;p&gt;Max. Speed: 62.1km/h&lt;/p&gt;&lt;p&gt;Minimum altitude: 6m&lt;/p&gt;&lt;p&gt;Maximum altitude: 1814m&lt;/p&gt;&lt;p&gt;Ascent speed: 374.6m/h&lt;/p&gt;&lt;p&gt;Descent speed: -866.7m/h&lt;/p&gt;&lt;p&gt;Elevation gain: 1307m&lt;/p&gt;&lt;p&gt;Elevation loss: -2421m&lt;/p&gt;&lt;p&gt;Ascent time: 03:29&lt;/p&gt;&lt;p&gt;Descent time: 02:47&lt;/p&gt;&lt;hr align="center" width="480" style="height: 2px; width: 517px"/&gt;</desc>
<type>Undefined</type>
<extensions>
<om:oruxmapsextensions>
<om:ext type="TYPE" subtype="0">0</om:ext>
</om:oruxmapsextensions>
</extensions>
<trkseg>
<trkpt lat="34.9674327" lon="32.8275817">
<ele>1105.0</ele>
<time>2015-04-30T07:00:25Z</time>
</trkpt>
<trkpt lat="34.9675771" lon="32.8275279">
<ele>1107.4</ele>
<time>2015-04-30T07:00:28Z</time>
</trkpt>
<trkpt lat="34.9672665" lon="32.8273987">
<ele>1114.8</ele>
<time>2015-04-30T07:09:53Z</time>
</trkpt>
<trkpt lat="34.9668878" lon="32.8275474">
<ele>1118.9</ele>
<time>2015-04-30T07:10:24Z</time>
</trkpt>
<trkpt lat="34.9648727" lon="32.8291446">
<ele>1130.3</ele>
<time>2015-04-30T07:13:25Z</time>
</trkpt>
<trkpt lat="34.9642765" lon="32.8289493">
<ele>1135.9</ele>
<time>2015-04-30T07:14:08Z</time>
</trkpt>
<trkpt lat="34.9625251" lon="32.8288820">
<ele>1151.7</ele>
<time>2015-04-30T07:15:51Z</time>
</trkpt>
<trkpt lat="34.9617526" lon="32.8290115">
<ele>1157.0</ele>
<time>2015-04-30T07:16:37Z</time>
</trkpt>
<trkpt lat="34.9616637" lon="32.8287630">
<ele>1164.3</ele>
<time>2015-04-30T07:16:57Z</time>
</trkpt>
<trkpt lat="34.9620217" lon="32.8287974">
<ele>1158.6</ele>
<time>2015-04-30T07:17:22Z</time>
</trkpt>
<trkpt lat="34.9623957" lon="32.8285027">
<ele>1166.1</ele>
<time>2015-04-30T07:17:49Z</time>
</trkpt>
<trkpt lat="34.9638888" lon="32.8282836">
<ele>1172.2</ele>
<time>2015-04-30T07:19:06Z</time>
</trkpt>
<trkpt lat="34.9616687" lon="32.8279792">
<ele>1190.0</ele>
<time>2015-04-30T07:21:25Z</time>
</trkpt>
<trkpt lat="34.9605901" lon="32.8270515">
<ele>1206.9</ele>
<time>2015-04-30T07:22:55Z</time>
</trkpt>
<trkpt lat="34.9596309" lon="32.8271007">
<ele>1222.2</ele>
<time>2015-04-30T07:24:05Z</time>
</trkpt>
<trkpt lat="34.9594924" lon="32.8274403">
<ele>1230.9</ele>
<time>2015-04-30T07:24:24Z</time>
</trkpt>
<trkpt lat="34.9595857" lon="32.8279240">
<ele>1224.8</ele>
<time>2015-04-30T07:24:50Z</time>
</trkpt>
<trkpt lat="34.9591909" lon="32.8283211">
<ele>1236.2</ele>
<time>2015-04-30T07:25:23Z</time>
</trkpt>
<trkpt lat="34.9591540" lon="32.8289760">
<ele>1231.0</ele>
<time>2015-04-30T07:26:02Z</time>
</trkpt>
<trkpt lat="34.9581321" lon="32.8292877">
<ele>1241.3</ele>
<time>2015-04-30T07:27:14Z</time>
</trkpt>
<trkpt lat="34.9580639" lon="32.8297255">
<ele>1250.7</ele>
<time>2015-04-30T07:27:39Z</time>
</trkpt>
<trkpt lat="34.9583085" lon="32.8305697">
<ele>1253.0</ele>
<time>2015-04-30T07:28:33Z</time>
</trkpt>
<trkpt lat="34.9576350" lon="32.8312197">
<ele>1262.5</ele>
<time>2015-04-30T07:29:34Z</time>
</trkpt>
<trkpt lat="34.9575399" lon="32.8319994">
<ele>1269.4</ele>
<time>2015-04-30T07:30:54Z</time>
</trkpt>
<trkpt lat="34.9574320" lon="32.8319720">
<ele>1274.0</ele>
<time>2015-04-30T07:33:37Z</time>
</trkpt>
<trkpt lat="34.9574412" lon="32.8316804">
<ele>1273.1</ele>
<time>2015-04-30T07:35:07Z</time>
</trkpt>
<trkpt lat="34.9573903" lon="32.8317754">
<ele>1275.0</ele>
<time>2015-04-30T07:35:31Z</time>
</trkpt>
<trkpt lat="34.9574592" lon="32.8320981">
<ele>1274.6</ele>
<time>2015-04-30T07:37:49Z</time>
</trkpt>
<trkpt lat="34.9581498" lon="32.8321734">
<ele>1269.7</ele>
<time>2015-04-30T07:38:32Z</time>
</trkpt>
<trkpt lat="34.9588564" lon="32.8331270">
<ele>1283.7</ele>
<time>2015-04-30T07:39:30Z</time>
</trkpt>
<trkpt lat="34.9590162" lon="32.8344241">
<ele>1286.5</ele>
<time>2015-04-30T07:40:41Z</time>
</trkpt>
<trkpt lat="34.9585221" lon="32.8353981">
<ele>1296.8</ele>
<time>2015-04-30T07:41:53Z</time>
</trkpt>
<trkpt lat="34.9587152" lon="32.8356657">
<ele>1298.1</ele>
<time>2015-04-30T07:42:17Z</time>
</trkpt>
<trkpt lat="34.9592394" lon="32.8358619">
<ele>1300.4</ele>
<time>2015-04-30T07:42:53Z</time>
</trkpt>
<trkpt lat="34.9594397" lon="32.8361933">
<ele>1307.0</ele>
<time>2015-04-30T07:43:16Z</time>
</trkpt>
<trkpt lat="34.9595411" lon="32.8369832">
<ele>1306.6</ele>
<time>2015-04-30T07:44:00Z</time>
</trkpt>
<trkpt lat="34.9592657" lon="32.8372556">
<ele>1308.6</ele>
<time>2015-04-30T07:44:26Z</time>
</trkpt>
<trkpt lat="34.9583029" lon="32.8371302">
<ele>1314.1</ele>
<time>2015-04-30T07:45:20Z</time>
</trkpt>
<trkpt lat="34.9570241" lon="32.8365402">
<ele>1336.4</ele>
<time>2015-04-30T07:46:47Z</time>
</trkpt>
<trkpt lat="34.9571913" lon="32.8359073">
<ele>1337.6</ele>
<time>2015-04-30T07:47:26Z</time>
</trkpt>
<trkpt lat="34.9570847" lon="32.8352218">
<ele>1348.5</ele>
<time>2015-04-30T07:48:05Z</time>
</trkpt>
<trkpt lat="34.9575354" lon="32.8345092">
<ele>1339.0</ele>
<time>2015-04-30T07:48:57Z</time>
</trkpt>
<trkpt lat="34.9574450" lon="32.8341736">
<ele>1341.2</ele>
<time>2015-04-30T07:49:20Z</time>
</trkpt>
<trkpt lat="34.9561737" lon="32.8338888">
<ele>1355.1</ele>
<time>2015-04-30T07:51:00Z</time>
</trkpt>
<trkpt lat="34.9547267" lon="32.8348681">
<ele>1370.2</ele>
<time>2015-04-30T07:53:22Z</time>
</trkpt>
<trkpt lat="34.9541498" lon="32.8349517">
<ele>1381.3</ele>
<time>2015-04-30T07:54:04Z</time>
</trkpt>
<trkpt lat="34.9538171" lon="32.8348049">
<ele>1386.1</ele>
<time>2015-04-30T07:54:33Z</time>
</trkpt>
<trkpt lat="34.9535491" lon="32.8339562">
<ele>1382.1</ele>
<time>2015-04-30T07:55:20Z</time>
</trkpt>
<trkpt lat="34.9527174" lon="32.8336771">
<ele>1393.5</ele>
<time>2015-04-30T07:56:32Z</time>
</trkpt>
<trkpt lat="34.9524471" lon="32.8330909">
<ele>1388.6</ele>
<time>2015-04-30T07:57:16Z</time>
</trkpt>
<trkpt lat="34.9507230" lon="32.8335522">
<ele>1402.8</ele>
<time>2015-04-30T07:59:11Z</time>
</trkpt>
<trkpt lat="34.9497818" lon="32.8323630">
<ele>1397.3</ele>
<time>2015-04-30T08:08:20Z</time>
</trkpt>
<trkpt lat="34.9503339" lon="32.8336340">
<ele>1416.7</ele>
<time>2015-04-30T08:12:32Z</time>
</trkpt>
<trkpt lat="34.9499307" lon="32.8348592">
<ele>1419.5</ele>
<time>2015-04-30T08:14:12Z</time>
</trkpt>
<trkpt lat="34.9499795" lon="32.8352584">
<ele>1424.4</ele>
<time>2015-04-30T08:14:37Z</time>
</trkpt>
<trkpt lat="34.9503439" lon="32.8353596">
<ele>1427.9</ele>
<time>2015-04-30T08:15:13Z</time>
</trkpt>
<trkpt lat="34.9511815" lon="32.8350089">
<ele>1433.3</ele>
<time>2015-04-30T08:16:37Z</time>
</trkpt>
<trkpt lat="34.9516388" lon="32.8351482">
<ele>1440.4</ele>
<time>2015-04-30T08:17:10Z</time>
</trkpt>
<trkpt lat="34.9518919" lon="32.8354630">
<ele>1443.7</ele>
<time>2015-04-30T08:17:37Z</time>
</trkpt>
<trkpt lat="34.9517872" lon="32.8357824">
<ele>1456.3</ele>
<time>2015-04-30T08:18:01Z</time>
</trkpt>
<trkpt lat="34.9514529" lon="32.8357133">
<ele>1449.5</ele>
<time>2015-04-30T08:18:29Z</time>
</trkpt>
<trkpt lat="34.9511742" lon="32.8358799">
<ele>1454.9</ele>
<time>2015-04-30T08:18:54Z</time>
</trkpt>
<trkpt lat="34.9504715" lon="32.8369242">
<ele>1453.2</ele>
<time>2015-04-30T08:20:23Z</time>
</trkpt>
<trkpt lat="34.9506114" lon="32.8370180">
<ele>1456.6</ele>
<time>2015-04-30T08:20:41Z</time>
</trkpt>
<trkpt lat="34.9511697" lon="32.8365050">
<ele>1462.4</ele>
<time>2015-04-30T08:21:46Z</time>
</trkpt>
<trkpt lat="34.9516891" lon="32.8365067">
<ele>1467.8</ele>
<time>2015-04-30T08:22:27Z</time>
</trkpt>
<trkpt lat="34.9520470" lon="32.8371610">
<ele>1480.8</ele>
<time>2015-04-30T08:23:15Z</time>
</trkpt>
<trkpt lat="34.9522602" lon="32.8386912">
<ele>1497.6</ele>
<time>2015-04-30T08:25:07Z</time>
</trkpt>
<trkpt lat="34.9522354" lon="32.8398175">
<ele>1498.5</ele>
<time>2015-04-30T08:26:24Z</time>
</trkpt>
<trkpt lat="34.9516243" lon="32.8404440">
<ele>1510.3</ele>
<time>2015-04-30T08:27:30Z</time>
</trkpt>
<trkpt lat="34.9514936" lon="32.8407812">
<ele>1516.6</ele>
<time>2015-04-30T08:27:56Z</time>
</trkpt>
<trkpt lat="34.9523260" lon="32.8423365">
<ele>1518.4</ele>
<time>2015-04-30T08:29:57Z</time>
</trkpt>
<trkpt lat="34.9520498" lon="32.8430526">
<ele>1523.5</ele>
<time>2015-04-30T08:30:46Z</time>
</trkpt>
<trkpt lat="34.9516090" lon="32.8432878">
<ele>1525.5</ele>
<time>2015-04-30T08:40:29Z</time>
</trkpt>
<trkpt lat="34.9509483" lon="32.8433534">
<ele>1539.4</ele>
<time>2015-04-30T08:41:26Z</time>
</trkpt>
<trkpt lat="34.9506641" lon="32.8435930">
<ele>1550.2</ele>
<time>2015-04-30T08:42:01Z</time>
</trkpt>
<trkpt lat="34.9506492" lon="32.8440952">
<ele>1555.6</ele>
<time>2015-04-30T08:42:36Z</time>
</trkpt>
<trkpt lat="34.9510636" lon="32.8454253">
<ele>1556.5</ele>
<time>2015-04-30T08:44:16Z</time>
</trkpt>
<trkpt lat="34.9500620" lon="32.8479558">
<ele>1571.0</ele>
<time>2015-04-30T08:46:54Z</time>
</trkpt>
<trkpt lat="34.9498657" lon="32.8478320">
<ele>1577.8</ele>
<time>2015-04-30T08:47:10Z</time>
</trkpt>
<trkpt lat="34.9498846" lon="32.8470895">
<ele>1582.8</ele>
<time>2015-04-30T08:47:54Z</time>
</trkpt>
<trkpt lat="34.9492404" lon="32.8464432">
<ele>1591.3</ele>
<time>2015-04-30T08:48:57Z</time>
</trkpt>
<trkpt lat="34.9487306" lon="32.8463698">
<ele>1593.7</ele>
<time>2015-04-30T08:49:36Z</time>
</trkpt>
<trkpt lat="34.9479528" lon="32.8472085">
<ele>1600.8</ele>
<time>2015-04-30T08:50:56Z</time>
</trkpt>
<trkpt lat="34.9474802" lon="32.8473409">
<ele>1607.0</ele>
<time>2015-04-30T08:51:31Z</time>
</trkpt>
<trkpt lat="34.9470587" lon="32.8470795">
<ele>1614.0</ele>
<time>2015-04-30T08:51:54Z</time>
</trkpt>
<trkpt lat="34.9467384" lon="32.8465307">
<ele>1608.7</ele>
<time>2015-04-30T08:52:30Z</time>
</trkpt>
<trkpt lat="34.9457162" lon="32.8474728">
<ele>1626.9</ele>
<time>2015-04-30T08:54:19Z</time>
</trkpt>
<trkpt lat="34.9440398" lon="32.8472050">
<ele>1641.5</ele>
<time>2015-04-30T08:56:53Z</time>
</trkpt>
<trkpt lat="34.9432000" lon="32.8478912">
<ele>1646.7</ele>
<time>2015-04-30T09:08:02Z</time>
</trkpt>
<trkpt lat="34.9425806" lon="32.8489270">
<ele>1650.7</ele>
<time>2015-04-30T09:09:39Z</time>
</trkpt>
<trkpt lat="34.9426557" lon="32.8495045">
<ele>1653.6</ele>
<time>2015-04-30T09:10:23Z</time>
</trkpt>
<trkpt lat="34.9430722" lon="32.8500717">
<ele>1664.0</ele>
<time>2015-04-30T09:11:15Z</time>
</trkpt>
<trkpt lat="34.9430803" lon="32.8511234">
<ele>1671.5</ele>
<time>2015-04-30T09:12:25Z</time>
</trkpt>
<trkpt lat="34.9438474" lon="32.8529607">
<ele>1683.5</ele>
<time>2015-04-30T09:14:52Z</time>
</trkpt>
<trkpt lat="34.9447498" lon="32.8539362">
<ele>1697.9</ele>
<time>2015-04-30T09:16:34Z</time>
</trkpt>
<trkpt lat="34.9451668" lon="32.8546901">
<ele>1710.2</ele>
<time>2015-04-30T09:17:29Z</time>
</trkpt>
<trkpt lat="34.9449832" lon="32.8550044">
<ele>1722.2</ele>
<time>2015-04-30T09:18:02Z</time>
</trkpt>
<trkpt lat="34.9441723" lon="32.8547363">
<ele>1723.1</ele>
<time>2015-04-30T09:19:22Z</time>
</trkpt>
<trkpt lat="34.9438971" lon="32.8548713">
<ele>1722.8</ele>
<time>2015-04-30T09:19:53Z</time>
</trkpt>
<trkpt lat="34.9437749" lon="32.8568507">
<ele>1740.7</ele>
<time>2015-04-30T09:29:13Z</time>
</trkpt>
<trkpt lat="34.9430191" lon="32.8578694">
<ele>1751.5</ele>
<time>2015-04-30T09:31:06Z</time>
</trkpt>
<trkpt lat="34.9426092" lon="32.8587413">
<ele>1756.9</ele>
<time>2015-04-30T09:32:25Z</time>
</trkpt>
<trkpt lat="34.9426126" lon="32.8594764">
<ele>1762.9</ele>
<time>2015-04-30T09:33:15Z</time>
</trkpt>
<trkpt lat="34.9428738" lon="32.8602512">
<ele>1770.2</ele>
<time>2015-04-30T09:34:17Z</time>
</trkpt>
<trkpt lat="34.9430335" lon="32.8618952">
<ele>1782.7</ele>
<time>2015-04-30T09:36:07Z</time>
</trkpt>
<trkpt lat="34.9429247" lon="32.8626608">
<ele>1788.8</ele>
<time>2015-04-30T09:36:56Z</time>
</trkpt>
<trkpt lat="34.9412057" lon="32.8640474">
<ele>1810.0</ele>
<time>2015-04-30T09:39:42Z</time>
</trkpt>
<trkpt lat="34.9409925" lon="32.8644104">
<ele>1809.1</ele>
<time>2015-04-30T09:43:10Z</time>
</trkpt>
<trkpt lat="34.9399795" lon="32.8647532">
<ele>1811.1</ele>
<time>2015-04-30T09:43:52Z</time>
</trkpt>
<trkpt lat="34.9397273" lon="32.8650323">
<ele>1807.2</ele>
<time>2015-04-30T09:43:57Z</time>
</trkpt>
<trkpt lat="34.9396635" lon="32.8653622">
<ele>1804.3</ele>
<time>2015-04-30T09:44:01Z</time>
</trkpt>
<trkpt lat="34.9401513" lon="32.8660953">
<ele>1806.5</ele>
<time>2015-04-30T09:44:16Z</time>
</trkpt>
<trkpt lat="34.9402043" lon="32.8668647">
<ele>1804.1</ele>
<time>2015-04-30T09:44:29Z</time>
</trkpt>
<trkpt lat="34.9390728" lon="32.8691573">
<ele>1797.6</ele>
<time>2015-04-30T09:45:07Z</time>
</trkpt>
<trkpt lat="34.9364526" lon="32.8707862">
<ele>1789.7</ele>
<time>2015-04-30T09:45:37Z</time>
</trkpt>
<trkpt lat="34.9355091" lon="32.8710981">
<ele>1795.4</ele>
<time>2015-04-30T09:45:59Z</time>
</trkpt>
<trkpt lat="34.9354582" lon="32.8714264">
<ele>1800.4</ele>
<time>2015-04-30T09:46:07Z</time>
</trkpt>
<trkpt lat="34.9360076" lon="32.8719225">
<ele>1800.9</ele>
<time>2015-04-30T09:46:25Z</time>
</trkpt>
<trkpt lat="34.9360629" lon="32.8725366">
<ele>1798.7</ele>
<time>2015-04-30T09:46:45Z</time>
</trkpt>
<trkpt lat="34.9356964" lon="32.8733181">
<ele>1795.5</ele>
<time>2015-04-30T09:48:34Z</time>
</trkpt>
<trkpt lat="34.9347075" lon="32.8737790">
<ele>1796.6</ele>
<time>2015-04-30T09:49:48Z</time>
</trkpt>
<trkpt lat="34.9346326" lon="32.8748775">
<ele>1793.6</ele>
<time>2015-04-30T09:50:04Z</time>
</trkpt>
<trkpt lat="34.9336157" lon="32.8748115">
<ele>1791.8</ele>
<time>2015-04-30T09:50:32Z</time>
</trkpt>
<trkpt lat="34.9329334" lon="32.8759958">
<ele>1781.1</ele>
<time>2015-04-30T09:50:49Z</time>
</trkpt>
<trkpt lat="34.9314822" lon="32.8767781">
<ele>1771.3</ele>
<time>2015-04-30T09:51:05Z</time>
</trkpt>
<trkpt lat="34.9301850" lon="32.8766499">
<ele>1761.4</ele>
<time>2015-04-30T09:51:17Z</time>
</trkpt>
<trkpt lat="34.9287373" lon="32.8770361">
<ele>1752.8</ele>
<time>2015-04-30T09:51:30Z</time>
</trkpt>
<trkpt lat="34.9275379" lon="32.8779522">
<ele>1744.2</ele>
<time>2015-04-30T09:51:44Z</time>
</trkpt>
<trkpt lat="34.9270046" lon="32.8786748">
<ele>1740.2</ele>
<time>2015-04-30T09:51:53Z</time>
</trkpt>
<trkpt lat="34.9265779" lon="32.8786053">
<ele>1741.1</ele>
<time>2015-04-30T09:51:59Z</time>
</trkpt>
<trkpt lat="34.9256173" lon="32.8777716">
<ele>1743.2</ele>
<time>2015-04-30T09:52:22Z</time>
</trkpt>
<trkpt lat="34.9252882" lon="32.8777742">
<ele>1741.0</ele>
<time>2015-04-30T09:52:29Z</time>
</trkpt>
<trkpt lat="34.9244240" lon="32.8789007">
<ele>1734.4</ele>
<time>2015-04-30T09:52:48Z</time>
</trkpt>
<trkpt lat="34.9243519" lon="32.8793000">
<ele>1733.1</ele>
<time>2015-04-30T09:52:52Z</time>
</trkpt>
<trkpt lat="34.9245011" lon="32.8803200">
<ele>1729.5</ele>
<time>2015-04-30T09:53:01Z</time>
</trkpt>
<trkpt lat="34.9241201" lon="32.8813009">
<ele>1725.0</ele>
<time>2015-04-30T09:53:23Z</time>
</trkpt>
<trkpt lat="34.9233553" lon="32.8804582">
<ele>1722.6</ele>
<time>2015-04-30T09:54:12Z</time>
</trkpt>
<trkpt lat="34.9226099" lon="32.8803772">
<ele>1720.3</ele>
<time>2015-04-30T09:57:07Z</time>
</trkpt>
<trkpt lat="34.9225638" lon="32.8802432">
<ele>1721.4</ele>
<time>2015-04-30T10:04:42Z</time>
</trkpt>
<trkpt lat="34.9226150" lon="32.8805202">
<ele>1716.8</ele>
<time>2015-04-30T10:05:26Z</time>
</trkpt>
<trkpt lat="34.9225977" lon="32.8803793">
<ele>1720.3</ele>
<time>2015-04-30T10:10:53Z</time>
</trkpt>
<trkpt lat="34.9227894" lon="32.8803377">
<ele>1720.5</ele>
<time>2015-04-30T10:11:10Z</time>
</trkpt>
<trkpt lat="34.9232290" lon="32.8804581">
<ele>1721.7</ele>
<time>2015-04-30T10:11:28Z</time>
</trkpt>
<trkpt lat="34.9231105" lon="32.8810907">
<ele>1713.3</ele>
<time>2015-04-30T10:11:50Z</time>
</trkpt>
<trkpt lat="34.9232386" lon="32.8809170">
<ele>1717.9</ele>
<time>2015-04-30T10:12:22Z</time>
</trkpt>
<trkpt lat="34.9231720" lon="32.8805346">
<ele>1720.3</ele>
<time>2015-04-30T10:12:43Z</time>
</trkpt>
<trkpt lat="34.9225827" lon="32.8802915">
<ele>1721.0</ele>
<time>2015-04-30T10:54:02Z</time>
</trkpt>
<trkpt lat="34.9235380" lon="32.8805415">
<ele>1723.5</ele>
<time>2015-04-30T10:57:38Z</time>
</trkpt>
<trkpt lat="34.9240192" lon="32.8813175">
<ele>1724.2</ele>
<time>2015-04-30T10:58:07Z</time>
</trkpt>
<trkpt lat="34.9241595" lon="32.8820359">
<ele>1719.4</ele>
<time>2015-04-30T10:58:20Z</time>
</trkpt>
<trkpt lat="34.9245424" lon="32.8823251">
<ele>1718.3</ele>
<time>2015-04-30T10:58:27Z</time>
</trkpt>
<trkpt lat="34.9248835" lon="32.8822506">
<ele>1718.9</ele>
<time>2015-04-30T10:58:32Z</time>
</trkpt>
<trkpt lat="34.9254919" lon="32.8816431">
<ele>1717.8</ele>
<time>2015-04-30T10:58:43Z</time>
</trkpt>
<trkpt lat="34.9274274" lon="32.8810774">
<ele>1701.3</ele>
<time>2015-04-30T11:00:38Z</time>
</trkpt>
<trkpt lat="34.9284665" lon="32.8813820">
<ele>1692.5</ele>
<time>2015-04-30T11:00:49Z</time>
</trkpt>
<trkpt lat="34.9297853" lon="32.8821196">
<ele>1679.1</ele>
<time>2015-04-30T11:01:01Z</time>
</trkpt>
<trkpt lat="34.9316454" lon="32.8840408">
<ele>1658.3</ele>
<time>2015-04-30T11:01:24Z</time>
</trkpt>
<trkpt lat="34.9317355" lon="32.8847080">
<ele>1656.4</ele>
<time>2015-04-30T11:01:30Z</time>
</trkpt>
<trkpt lat="34.9313144" lon="32.8857519">
<ele>1653.2</ele>
<time>2015-04-30T11:03:10Z</time>
</trkpt>
<trkpt lat="34.9312933" lon="32.8861877">
<ele>1651.4</ele>
<time>2015-04-30T11:03:19Z</time>
</trkpt>
<trkpt lat="34.9325144" lon="32.8882574">
<ele>1644.4</ele>
<time>2015-04-30T11:03:49Z</time>
</trkpt>
<trkpt lat="34.9339320" lon="32.8894474">
<ele>1658.6</ele>
<time>2015-04-30T11:04:29Z</time>
</trkpt>
<trkpt lat="34.9359703" lon="32.8901607">
<ele>1674.5</ele>
<time>2015-04-30T11:06:11Z</time>
</trkpt>
<trkpt lat="34.9362947" lon="32.8905796">
<ele>1677.0</ele>
<time>2015-04-30T11:06:34Z</time>
</trkpt>
<trkpt lat="34.9364597" lon="32.8911554">
<ele>1674.2</ele>
<time>2015-04-30T11:06:49Z</time>
</trkpt>
<trkpt lat="34.9363913" lon="32.8925401">
<ele>1664.6</ele>
<time>2015-04-30T11:07:07Z</time>
</trkpt>
<trkpt lat="34.9342257" lon="32.8976800">
<ele>1627.0</ele>
<time>2015-04-30T11:07:42Z</time>
</trkpt>
<trkpt lat="34.9333071" lon="32.8995032">
<ele>1618.8</ele>
<time>2015-04-30T11:07:56Z</time>
</trkpt>
<trkpt lat="34.9318839" lon="32.9008640">
<ele>1607.7</ele>
<time>2015-04-30T11:08:11Z</time>
</trkpt>
<trkpt lat="34.9309712" lon="32.9021964">
<ele>1598.7</ele>
<time>2015-04-30T11:08:23Z</time>
</trkpt>
<trkpt lat="34.9307106" lon="32.9038410">
<ele>1586.2</ele>
<time>2015-04-30T11:08:35Z</time>
</trkpt>
<trkpt lat="34.9308705" lon="32.9055721">
<ele>1572.7</ele>
<time>2015-04-30T11:08:48Z</time>
</trkpt>
<trkpt lat="34.9322125" lon="32.9072442">
<ele>1552.7</ele>
<time>2015-04-30T11:09:06Z</time>
</trkpt>
<trkpt lat="34.9331281" lon="32.9099537">
<ele>1535.1</ele>
<time>2015-04-30T11:14:54Z</time>
</trkpt>
<trkpt lat="34.9337204" lon="32.9109299">
<ele>1526.6</ele>
<time>2015-04-30T11:15:25Z</time>
</trkpt>
<trkpt lat="34.9336603" lon="32.9116570">
<ele>1524.1</ele>
<time>2015-04-30T11:15:32Z</time>
</trkpt>
<trkpt lat="34.9327967" lon="32.9128736">
<ele>1510.5</ele>
<time>2015-04-30T11:15:45Z</time>
</trkpt>
<trkpt lat="34.9328090" lon="32.9131929">
<ele>1504.9</ele>
<time>2015-04-30T11:15:48Z</time>
</trkpt>
<trkpt lat="34.9333146" lon="32.9142903">
<ele>1495.9</ele>
<time>2015-04-30T11:15:59Z</time>
</trkpt>
<trkpt lat="34.9328702" lon="32.9153022">
<ele>1483.5</ele>
<time>2015-04-30T11:16:12Z</time>
</trkpt>
<trkpt lat="34.9330125" lon="32.9155986">
<ele>1478.7</ele>
<time>2015-04-30T11:16:16Z</time>
</trkpt>
<trkpt lat="34.9340080" lon="32.9163854">
<ele>1480.3</ele>
<time>2015-04-30T11:16:28Z</time>
</trkpt>
<trkpt lat="34.9342365" lon="32.9168425">
<ele>1479.1</ele>
<time>2015-04-30T11:16:32Z</time>
</trkpt>
<trkpt lat="34.9344280" lon="32.9176687">
<ele>1472.9</ele>
<time>2015-04-30T11:16:38Z</time>
</trkpt>
<trkpt lat="34.9343152" lon="32.9190965">
<ele>1456.4</ele>
<time>2015-04-30T11:16:48Z</time>
</trkpt>
<trkpt lat="34.9339621" lon="32.9200827">
<ele>1445.5</ele>
<time>2015-04-30T11:16:55Z</time>
</trkpt>
<trkpt lat="34.9332942" lon="32.9204489">
<ele>1434.8</ele>
<time>2015-04-30T11:17:01Z</time>
</trkpt>
<trkpt lat="34.9326865" lon="32.9201882">
<ele>1427.6</ele>
<time>2015-04-30T11:17:06Z</time>
</trkpt>
<trkpt lat="34.9318698" lon="32.9192752">
<ele>1416.1</ele>
<time>2015-04-30T11:17:14Z</time>
</trkpt>
<trkpt lat="34.9310607" lon="32.9178396">
<ele>1407.4</ele>
<time>2015-04-30T11:17:26Z</time>
</trkpt>
<trkpt lat="34.9307250" lon="32.9145024">
<ele>1387.2</ele>
<time>2015-04-30T11:17:50Z</time>
</trkpt>
<trkpt lat="34.9304689" lon="32.9144113">
<ele>1383.8</ele>
<time>2015-04-30T11:17:55Z</time>
</trkpt>
<trkpt lat="34.9306153" lon="32.9160416">
<ele>1376.0</ele>
<time>2015-04-30T11:18:17Z</time>
</trkpt>
<trkpt lat="34.9303527" lon="32.9177428">
<ele>1366.6</ele>
<time>2015-04-30T11:18:31Z</time>
</trkpt>
<trkpt lat="34.9293994" lon="32.9192405">
<ele>1354.5</ele>
<time>2015-04-30T11:18:45Z</time>
</trkpt>
<trkpt lat="34.9294791" lon="32.9209627">
<ele>1342.7</ele>
<time>2015-04-30T11:18:56Z</time>
</trkpt>
<trkpt lat="34.9291845" lon="32.9219795">
<ele>1331.4</ele>
<time>2015-04-30T11:19:05Z</time>
</trkpt>
<trkpt lat="34.9294247" lon="32.9227596">
<ele>1325.4</ele>
<time>2015-04-30T11:19:12Z</time>
</trkpt>
<trkpt lat="34.9294452" lon="32.9241690">
<ele>1316.2</ele>
<time>2015-04-30T11:19:22Z</time>
</trkpt>
<trkpt lat="34.9296608" lon="32.9244953">
<ele>1315.4</ele>
<time>2015-04-30T11:19:25Z</time>
</trkpt>
<trkpt lat="34.9299831" lon="32.9246079">
<ele>1315.7</ele>
<time>2015-04-30T11:19:28Z</time>
</trkpt>
<trkpt lat="34.9310758" lon="32.9243569">
<ele>1313.2</ele>
<time>2015-04-30T11:19:39Z</time>
</trkpt>
<trkpt lat="34.9333529" lon="32.9247778">
<ele>1291.0</ele>
<time>2015-04-30T11:20:01Z</time>
</trkpt>
<trkpt lat="34.9348625" lon="32.9267665">
<ele>1273.8</ele>
<time>2015-04-30T11:20:20Z</time>
</trkpt>
<trkpt lat="34.9352318" lon="32.9280811">
<ele>1264.4</ele>
<time>2015-04-30T11:20:32Z</time>
</trkpt>
<trkpt lat="34.9355681" lon="32.9280227">
<ele>1264.0</ele>
<time>2015-04-30T11:20:37Z</time>
</trkpt>
<trkpt lat="34.9357837" lon="32.9272524">
<ele>1266.4</ele>
<time>2015-04-30T11:20:47Z</time>
</trkpt>
<trkpt lat="34.9363140" lon="32.9269271">
<ele>1259.3</ele>
<time>2015-04-30T11:20:57Z</time>
</trkpt>
<trkpt lat="34.9368179" lon="32.9270730">
<ele>1251.3</ele>
<time>2015-04-30T11:21:03Z</time>
</trkpt>
<trkpt lat="34.9374161" lon="32.9277692">
<ele>1244.5</ele>
<time>2015-04-30T11:21:17Z</time>
</trkpt>
<trkpt lat="34.9377460" lon="32.9279188">
<ele>1240.7</ele>
<time>2015-04-30T11:21:22Z</time>
</trkpt>
<trkpt lat="34.9387960" lon="32.9275470">
<ele>1228.5</ele>
<time>2015-04-30T11:21:37Z</time>
</trkpt>
<trkpt lat="34.9398245" lon="32.9283802">
<ele>1219.9</ele>
<time>2015-04-30T11:21:55Z</time>
</trkpt>
<trkpt lat="34.9405966" lon="32.9279404">
<ele>1212.3</ele>
<time>2015-04-30T11:22:07Z</time>
</trkpt>
<trkpt lat="34.9409648" lon="32.9279779">
<ele>1206.1</ele>
<time>2015-04-30T11:22:12Z</time>
</trkpt>
<trkpt lat="34.9412064" lon="32.9283739">
<ele>1207.0</ele>
<time>2015-04-30T11:22:18Z</time>
</trkpt>
<trkpt lat="34.9413692" lon="32.9294557">
<ele>1196.6</ele>
<time>2015-04-30T11:22:32Z</time>
</trkpt>
<trkpt lat="34.9423749" lon="32.9304339">
<ele>1183.9</ele>
<time>2015-04-30T11:22:54Z</time>
</trkpt>
<trkpt lat="34.9423334" lon="32.9305940">
<ele>1184.3</ele>
<time>2015-04-30T11:23:01Z</time>
</trkpt>
<trkpt lat="34.9412818" lon="32.9306649">
<ele>1176.0</ele>
<time>2015-04-30T11:23:18Z</time>
</trkpt>
<trkpt lat="34.9393488" lon="32.9315995">
<ele>1154.5</ele>
<time>2015-04-30T11:23:42Z</time>
</trkpt>
<trkpt lat="34.9355814" lon="32.9328911">
<ele>1119.3</ele>
<time>2015-04-30T11:24:10Z</time>
</trkpt>
<trkpt lat="34.9340878" lon="32.9329999">
<ele>1100.8</ele>
<time>2015-04-30T11:24:23Z</time>
</trkpt>
<trkpt lat="34.9322212" lon="32.9346951">
<ele>1085.0</ele>
<time>2015-04-30T11:24:41Z</time>
</trkpt>
<trkpt lat="34.9308182" lon="32.9353107">
<ele>1072.4</ele>
<time>2015-04-30T11:24:54Z</time>
</trkpt>
<trkpt lat="34.9294194" lon="32.9353144">
<ele>1061.3</ele>
<time>2015-04-30T11:25:07Z</time>
</trkpt>
<trkpt lat="34.9277562" lon="32.9346622">
<ele>1049.5</ele>
<time>2015-04-30T11:25:22Z</time>
</trkpt>
<trkpt lat="34.9261611" lon="32.9344652">
<ele>1035.8</ele>
<time>2015-04-30T11:25:34Z</time>
</trkpt>
<trkpt lat="34.9236244" lon="32.9353824">
<ele>1013.1</ele>
<time>2015-04-30T11:25:53Z</time>
</trkpt>
<trkpt lat="34.9226486" lon="32.9362130">
<ele>999.9</ele>
<time>2015-04-30T11:26:02Z</time>
</trkpt>
<trkpt lat="34.9222973" lon="32.9363080">
<ele>996.6</ele>
<time>2015-04-30T11:26:05Z</time>
</trkpt>
<trkpt lat="34.9207421" lon="32.9357439">
<ele>982.4</ele>
<time>2015-04-30T11:26:20Z</time>
</trkpt>
<trkpt lat="34.9205342" lon="32.9350037">
<ele>976.9</ele>
<time>2015-04-30T11:26:30Z</time>
</trkpt>
<trkpt lat="34.9199725" lon="32.9345244">
<ele>982.0</ele>
<time>2015-04-30T11:26:53Z</time>
</trkpt>
<trkpt lat="34.9196420" lon="32.9345306">
<ele>984.5</ele>
<time>2015-04-30T11:27:08Z</time>
</trkpt>
<trkpt lat="34.9188282" lon="32.9350256">
<ele>981.1</ele>
<time>2015-04-30T11:27:38Z</time>
</trkpt>
<trkpt lat="34.9176792" lon="32.9365055">
<ele>969.4</ele>
<time>2015-04-30T11:28:00Z</time>
</trkpt>
<trkpt lat="34.9174156" lon="32.9369197">
<ele>965.6</ele>
<time>2015-04-30T11:28:07Z</time>
</trkpt>
<trkpt lat="34.9174719" lon="32.9370751">
<ele>963.4</ele>
<time>2015-04-30T11:28:17Z</time>
</trkpt>
<trkpt lat="34.9173229" lon="32.9370606">
<ele>963.7</ele>
<time>2015-04-30T11:36:00Z</time>
</trkpt>
<trkpt lat="34.9167264" lon="32.9380972">
<ele>952.0</ele>
<time>2015-04-30T11:36:21Z</time>
</trkpt>
<trkpt lat="34.9150826" lon="32.9394661">
<ele>938.8</ele>
<time>2015-04-30T11:36:43Z</time>
</trkpt>
<trkpt lat="34.9143270" lon="32.9405726">
<ele>931.2</ele>
<time>2015-04-30T11:36:55Z</time>
</trkpt>
<trkpt lat="34.9130386" lon="32.9415950">
<ele>924.5</ele>
<time>2015-04-30T11:37:08Z</time>
</trkpt>
<trkpt lat="34.9114623" lon="32.9421345">
<ele>916.0</ele>
<time>2015-04-30T11:37:22Z</time>
</trkpt>
<trkpt lat="34.9094718" lon="32.9431301">
<ele>898.2</ele>
<time>2015-04-30T11:37:40Z</time>
</trkpt>
<trkpt lat="34.9060150" lon="32.9431689">
<ele>877.4</ele>
<time>2015-04-30T11:38:08Z</time>
</trkpt>
<trkpt lat="34.9054294" lon="32.9430403">
<ele>874.3</ele>
<time>2015-04-30T11:38:13Z</time>
</trkpt>
<trkpt lat="34.9038030" lon="32.9422378">
<ele>866.7</ele>
<time>2015-04-30T11:38:28Z</time>
</trkpt>
<trkpt lat="34.9024051" lon="32.9422403">
<ele>858.6</ele>
<time>2015-04-30T11:38:41Z</time>
</trkpt>
<trkpt lat="34.9015484" lon="32.9420305">
<ele>861.6</ele>
<time>2015-04-30T11:38:50Z</time>
</trkpt>
<trkpt lat="34.8997723" lon="32.9399648">
<ele>845.9</ele>
<time>2015-04-30T11:39:14Z</time>
</trkpt>
<trkpt lat="34.8994633" lon="32.9392848">
<ele>849.3</ele>
<time>2015-04-30T11:39:20Z</time>
</trkpt>
<trkpt lat="34.8989154" lon="32.9370436">
<ele>826.4</ele>
<time>2015-04-30T11:39:37Z</time>
</trkpt>
<trkpt lat="34.8984154" lon="32.9364292">
<ele>819.6</ele>
<time>2015-04-30T11:39:45Z</time>
</trkpt>
<trkpt lat="34.8956482" lon="32.9354554">
<ele>804.3</ele>
<time>2015-04-30T11:40:13Z</time>
</trkpt>
<trkpt lat="34.8941078" lon="32.9361278">
<ele>794.9</ele>
<time>2015-04-30T11:40:32Z</time>
</trkpt>
<trkpt lat="34.8924826" lon="32.9356643">
<ele>783.3</ele>
<time>2015-04-30T11:40:50Z</time>
</trkpt>
<trkpt lat="34.8903335" lon="32.9356596">
<ele>776.0</ele>
<time>2015-04-30T11:41:18Z</time>
</trkpt>
<trkpt lat="34.8897956" lon="32.9348631">
<ele>772.8</ele>
<time>2015-04-30T11:41:32Z</time>
</trkpt>
<trkpt lat="34.8897131" lon="32.9337603">
<ele>771.1</ele>
<time>2015-04-30T11:41:44Z</time>
</trkpt>
<trkpt lat="34.8893202" lon="32.9331439">
<ele>759.9</ele>
<time>2015-04-30T11:41:51Z</time>
</trkpt>
<trkpt lat="34.8886206" lon="32.9326377">
<ele>756.0</ele>
<time>2015-04-30T11:41:58Z</time>
</trkpt>
<trkpt lat="34.8874999" lon="32.9323839">
<ele>751.4</ele>
<time>2015-04-30T11:42:08Z</time>
</trkpt>
<trkpt lat="34.8857606" lon="32.9314382">
<ele>731.4</ele>
<time>2015-04-30T11:42:24Z</time>
</trkpt>
<trkpt lat="34.8855032" lon="32.9307572">
<ele>729.7</ele>
<time>2015-04-30T11:42:30Z</time>
</trkpt>
<trkpt lat="34.8851648" lon="32.9287450">
<ele>721.1</ele>
<time>2015-04-30T11:42:46Z</time>
</trkpt>
<trkpt lat="34.8845584" lon="32.9277290">
<ele>719.5</ele>
<time>2015-04-30T11:42:57Z</time>
</trkpt>
<trkpt lat="34.8834659" lon="32.9270730">
<ele>717.6</ele>
<time>2015-04-30T11:43:13Z</time>
</trkpt>
<trkpt lat="34.8824737" lon="32.9270191">
<ele>712.1</ele>
<time>2015-04-30T11:43:28Z</time>
</trkpt>
<trkpt lat="34.8806780" lon="32.9265061">
<ele>705.6</ele>
<time>2015-04-30T11:44:05Z</time>
</trkpt>
<trkpt lat="34.8804534" lon="32.9260442">
<ele>708.1</ele>
<time>2015-04-30T11:44:14Z</time>
</trkpt>
<trkpt lat="34.8804770" lon="32.9249885">
<ele>702.6</ele>
<time>2015-04-30T11:44:27Z</time>
</trkpt>
<trkpt lat="34.8802298" lon="32.9243563">
<ele>692.8</ele>
<time>2015-04-30T11:44:33Z</time>
</trkpt>
<trkpt lat="34.8781904" lon="32.9231811">
<ele>689.1</ele>
<time>2015-04-30T11:44:56Z</time>
</trkpt>
<trkpt lat="34.8773623" lon="32.9225130">
<ele>681.5</ele>
<time>2015-04-30T11:45:05Z</time>
</trkpt>
<trkpt lat="34.8757635" lon="32.9201815">
<ele>664.3</ele>
<time>2015-04-30T11:45:24Z</time>
</trkpt>
<trkpt lat="34.8744699" lon="32.9189448">
<ele>664.9</ele>
<time>2015-04-30T11:45:39Z</time>
</trkpt>
<trkpt lat="34.8738152" lon="32.9186319">
<ele>660.8</ele>
<time>2015-04-30T11:45:47Z</time>
</trkpt>
<trkpt lat="34.8721193" lon="32.9188506">
<ele>657.3</ele>
<time>2015-04-30T11:47:42Z</time>
</trkpt>
<trkpt lat="34.8708547" lon="32.9183858">
<ele>647.2</ele>
<time>2015-04-30T11:47:58Z</time>
</trkpt>
<trkpt lat="34.8700192" lon="32.9176018">
<ele>641.6</ele>
<time>2015-04-30T11:48:11Z</time>
</trkpt>
<trkpt lat="34.8685646" lon="32.9170095">
<ele>632.4</ele>
<time>2015-04-30T11:48:38Z</time>
</trkpt>
<trkpt lat="34.8680358" lon="32.9162588">
<ele>627.6</ele>
<time>2015-04-30T11:48:49Z</time>
</trkpt>
<trkpt lat="34.8666004" lon="32.9152280">
<ele>620.3</ele>
<time>2015-04-30T11:49:09Z</time>
</trkpt>
<trkpt lat="34.8655000" lon="32.9139744">
<ele>616.6</ele>
<time>2015-04-30T11:49:29Z</time>
</trkpt>
<trkpt lat="34.8652467" lon="32.9132701">
<ele>616.5</ele>
<time>2015-04-30T11:49:41Z</time>
</trkpt>
<trkpt lat="34.8647769" lon="32.9127405">
<ele>615.0</ele>
<time>2015-04-30T11:49:52Z</time>
</trkpt>
<trkpt lat="34.8640957" lon="32.9125794">
<ele>616.1</ele>
<time>2015-04-30T11:50:05Z</time>
</trkpt>
<trkpt lat="34.8633950" lon="32.9126793">
<ele>609.3</ele>
<time>2015-04-30T11:50:19Z</time>
</trkpt>
<trkpt lat="34.8626128" lon="32.9123715">
<ele>603.4</ele>
<time>2015-04-30T11:50:32Z</time>
</trkpt>
<trkpt lat="34.8622491" lon="32.9120462">
<ele>600.5</ele>
<time>2015-04-30T11:50:45Z</time>
</trkpt>
<trkpt lat="34.8614620" lon="32.9128174">
<ele>594.3</ele>
<time>2015-04-30T11:51:22Z</time>
</trkpt>
<trkpt lat="34.8616033" lon="32.9130893">
<ele>594.0</ele>
<time>2015-04-30T11:51:56Z</time>
</trkpt>
<trkpt lat="34.8612981" lon="32.9130346">
<ele>591.9</ele>
<time>2015-04-30T11:56:19Z</time>
</trkpt>
<trkpt lat="34.8606057" lon="32.9136390">
<ele>592.4</ele>
<time>2015-04-30T11:56:46Z</time>
</trkpt>
<trkpt lat="34.8604132" lon="32.9133049">
<ele>589.6</ele>
<time>2015-04-30T11:57:07Z</time>
</trkpt>
<trkpt lat="34.8600534" lon="32.9132155">
<ele>584.8</ele>
<time>2015-04-30T11:57:39Z</time>
</trkpt>
<trkpt lat="34.8599989" lon="32.9135318">
<ele>587.7</ele>
<time>2015-04-30T12:00:16Z</time>
</trkpt>
<trkpt lat="34.8596642" lon="32.9136391">
<ele>589.1</ele>
<time>2015-04-30T12:00:28Z</time>
</trkpt>
<trkpt lat="34.8573286" lon="32.9131966">
<ele>582.8</ele>
<time>2015-04-30T12:01:10Z</time>
</trkpt>
<trkpt lat="34.8560909" lon="32.9126438">
<ele>574.7</ele>
<time>2015-04-30T12:01:36Z</time>
</trkpt>
<trkpt lat="34.8546032" lon="32.9130951">
<ele>571.6</ele>
<time>2015-04-30T12:02:03Z</time>
</trkpt>
<trkpt lat="34.8534838" lon="32.9126175">
<ele>568.5</ele>
<time>2015-04-30T12:02:20Z</time>
</trkpt>
<trkpt lat="34.8528195" lon="32.9117820">
<ele>563.8</ele>
<time>2015-04-30T12:02:40Z</time>
</trkpt>
<trkpt lat="34.8515886" lon="32.9117330">
<ele>559.2</ele>
<time>2015-04-30T12:03:08Z</time>
</trkpt>
<trkpt lat="34.8493378" lon="32.9111738">
<ele>551.5</ele>
<time>2015-04-30T12:03:45Z</time>
</trkpt>
<trkpt lat="34.8485289" lon="32.9112366">
<ele>548.7</ele>
<time>2015-04-30T12:03:55Z</time>
</trkpt>
<trkpt lat="34.8477895" lon="32.9105543">
<ele>556.0</ele>
<time>2015-04-30T12:04:12Z</time>
</trkpt>
<trkpt lat="34.8473162" lon="32.9103342">
<ele>556.1</ele>
<time>2015-04-30T12:04:26Z</time>
</trkpt>
<trkpt lat="34.8468683" lon="32.9105089">
<ele>555.4</ele>
<time>2015-04-30T12:04:40Z</time>
</trkpt>
<trkpt lat="34.8461195" lon="32.9111859">
<ele>559.1</ele>
<time>2015-04-30T12:05:21Z</time>
</trkpt>
<trkpt lat="34.8459782" lon="32.9107856">
<ele>558.8</ele>
<time>2015-04-30T12:10:28Z</time>
</trkpt>
<trkpt lat="34.8461920" lon="32.9111189">
<ele>558.9</ele>
<time>2015-04-30T12:10:46Z</time>
</trkpt>
<trkpt lat="34.8459983" lon="32.9117697">
<ele>558.6</ele>
<time>2015-04-30T12:11:07Z</time>
</trkpt>
<trkpt lat="34.8460148" lon="32.9126823">
<ele>557.6</ele>
<time>2015-04-30T12:11:24Z</time>
</trkpt>
<trkpt lat="34.8454922" lon="32.9134497">
<ele>555.1</ele>
<time>2015-04-30T12:11:38Z</time>
</trkpt>
<trkpt lat="34.8438940" lon="32.9138268">
<ele>560.9</ele>
<time>2015-04-30T12:12:07Z</time>
</trkpt>
<trkpt lat="34.8435744" lon="32.9136453">
<ele>556.4</ele>
<time>2015-04-30T12:12:26Z</time>
</trkpt>
<trkpt lat="34.8438681" lon="32.9137278">
<ele>557.9</ele>
<time>2015-04-30T12:12:45Z</time>
</trkpt>
<trkpt lat="34.8433193" lon="32.9139114">
<ele>558.7</ele>
<time>2015-04-30T12:13:06Z</time>
</trkpt>
<trkpt lat="34.8427026" lon="32.9149852">
<ele>559.1</ele>
<time>2015-04-30T12:13:35Z</time>
</trkpt>
<trkpt lat="34.8421430" lon="32.9151902">
<ele>561.2</ele>
<time>2015-04-30T12:13:51Z</time>
</trkpt>
<trkpt lat="34.8417134" lon="32.9148997">
<ele>560.8</ele>
<time>2015-04-30T12:14:00Z</time>
</trkpt>
<trkpt lat="34.8398227" lon="32.9123218">
<ele>564.6</ele>
<time>2015-04-30T12:14:56Z</time>
</trkpt>
<trkpt lat="34.8394580" lon="32.9114695">
<ele>567.2</ele>
<time>2015-04-30T12:15:15Z</time>
</trkpt>
<trkpt lat="34.8393454" lon="32.9100170">
<ele>566.8</ele>
<time>2015-04-30T12:15:45Z</time>
</trkpt>
<trkpt lat="34.8390215" lon="32.9094140">
<ele>566.1</ele>
<time>2015-04-30T12:15:57Z</time>
</trkpt>
<trkpt lat="34.8379003" lon="32.9086306">
<ele>568.9</ele>
<time>2015-04-30T12:16:24Z</time>
</trkpt>
<trkpt lat="34.8366252" lon="32.9072658">
<ele>567.5</ele>
<time>2015-04-30T12:17:08Z</time>
</trkpt>
<trkpt lat="34.8362954" lon="32.9071280">
<ele>564.5</ele>
<time>2015-04-30T12:17:18Z</time>
</trkpt>
<trkpt lat="34.8352824" lon="32.9076653">
<ele>556.8</ele>
<time>2015-04-30T12:17:39Z</time>
</trkpt>
<trkpt lat="34.8348907" lon="32.9080585">
<ele>554.4</ele>
<time>2015-04-30T12:17:46Z</time>
</trkpt>
<trkpt lat="34.8344148" lon="32.9101115">
<ele>548.5</ele>
<time>2015-04-30T12:18:04Z</time>
</trkpt>
<trkpt lat="34.8341116" lon="32.9106140">
<ele>541.6</ele>
<time>2015-04-30T12:18:09Z</time>
</trkpt>
<trkpt lat="34.8322584" lon="32.9112484">
<ele>549.3</ele>
<time>2015-04-30T12:18:35Z</time>
</trkpt>
<trkpt lat="34.8318442" lon="32.9115861">
<ele>549.3</ele>
<time>2015-04-30T12:18:46Z</time>
</trkpt>
<trkpt lat="34.8316687" lon="32.9122132">
<ele>546.5</ele>
<time>2015-04-30T12:18:58Z</time>
</trkpt>
<trkpt lat="34.8316500" lon="32.9154548">
<ele>538.7</ele>
<time>2015-04-30T12:19:42Z</time>
</trkpt>
<trkpt lat="34.8312441" lon="32.9161685">
<ele>547.1</ele>
<time>2015-04-30T12:19:53Z</time>
</trkpt>
<trkpt lat="34.8306331" lon="32.9164704">
<ele>540.8</ele>
<time>2015-04-30T12:20:04Z</time>
</trkpt>
<trkpt lat="34.8299004" lon="32.9163989">
<ele>540.6</ele>
<time>2015-04-30T12:20:15Z</time>
</trkpt>
<trkpt lat="34.8292741" lon="32.9157887">
<ele>546.5</ele>
<time>2015-04-30T12:20:27Z</time>
</trkpt>
<trkpt lat="34.8286275" lon="32.9124646">
<ele>527.9</ele>
<time>2015-04-30T12:21:04Z</time>
</trkpt>
<trkpt lat="34.8276884" lon="32.9100653">
<ele>517.8</ele>
<time>2015-04-30T12:21:35Z</time>
</trkpt>
<trkpt lat="34.8273790" lon="32.9097279">
<ele>515.0</ele>
<time>2015-04-30T12:21:42Z</time>
</trkpt>
<trkpt lat="34.8270147" lon="32.9096270">
<ele>512.3</ele>
<time>2015-04-30T12:21:48Z</time>
</trkpt>
<trkpt lat="34.8252483" lon="32.9100479">
<ele>507.5</ele>
<time>2015-04-30T12:22:14Z</time>
</trkpt>
<trkpt lat="34.8244356" lon="32.9104068">
<ele>508.5</ele>
<time>2015-04-30T12:22:26Z</time>
</trkpt>
<trkpt lat="34.8220652" lon="32.9132302">
<ele>509.7</ele>
<time>2015-04-30T12:23:28Z</time>
</trkpt>
<trkpt lat="34.8217114" lon="32.9134922">
<ele>510.8</ele>
<time>2015-04-30T12:23:40Z</time>
</trkpt>
<trkpt lat="34.8207841" lon="32.9136057">
<ele>513.4</ele>
<time>2015-04-30T12:24:12Z</time>
</trkpt>
<trkpt lat="34.8198343" lon="32.9150910">
<ele>516.6</ele>
<time>2015-04-30T12:24:59Z</time>
</trkpt>
<trkpt lat="34.8193071" lon="32.9154375">
<ele>519.6</ele>
<time>2015-04-30T12:25:10Z</time>
</trkpt>
<trkpt lat="34.8179768" lon="32.9155483">
<ele>518.1</ele>
<time>2015-04-30T12:25:38Z</time>
</trkpt>
<trkpt lat="34.8165015" lon="32.9161470">
<ele>523.7</ele>
<time>2015-04-30T12:26:22Z</time>
</trkpt>
<trkpt lat="34.8163529" lon="32.9160036">
<ele>521.2</ele>
<time>2015-04-30T12:26:34Z</time>
</trkpt>
<trkpt lat="34.8161506" lon="32.9163262">
<ele>522.5</ele>
<time>2015-04-30T12:27:29Z</time>
</trkpt>
<trkpt lat="34.8153491" lon="32.9165041">
<ele>529.9</ele>
<time>2015-04-30T12:28:04Z</time>
</trkpt>
<trkpt lat="34.8137170" lon="32.9158874">
<ele>535.8</ele>
<time>2015-04-30T12:29:12Z</time>
</trkpt>
<trkpt lat="34.8123678" lon="32.9150367">
<ele>534.4</ele>
<time>2015-04-30T12:29:58Z</time>
</trkpt>
<trkpt lat="34.8119137" lon="32.9149794">
<ele>533.7</ele>
<time>2015-04-30T12:30:08Z</time>
</trkpt>
<trkpt lat="34.8114678" lon="32.9152191">
<ele>533.2</ele>
<time>2015-04-30T12:30:19Z</time>
</trkpt>
<trkpt lat="34.8103759" lon="32.9165732">
<ele>537.7</ele>
<time>2015-04-30T12:31:02Z</time>
</trkpt>
<trkpt lat="34.8096836" lon="32.9168418">
<ele>541.5</ele>
<time>2015-04-30T12:31:19Z</time>
</trkpt>
<trkpt lat="34.8085158" lon="32.9169500">
<ele>535.3</ele>
<time>2015-04-30T12:32:04Z</time>
</trkpt>
<trkpt lat="34.8073845" lon="32.9174973">
<ele>529.3</ele>
<time>2015-04-30T12:32:25Z</time>
</trkpt>
<trkpt lat="34.8033487" lon="32.9162161">
<ele>509.4</ele>
<time>2015-04-30T12:33:07Z</time>
</trkpt>
<trkpt lat="34.8002501" lon="32.9158952">
<ele>501.8</ele>
<time>2015-04-30T12:33:44Z</time>
</trkpt>
<trkpt lat="34.7988882" lon="32.9150780">
<ele>500.4</ele>
<time>2015-04-30T12:34:06Z</time>
</trkpt>
<trkpt lat="34.7982017" lon="32.9149390">
<ele>500.1</ele>
<time>2015-04-30T12:34:17Z</time>
</trkpt>
<trkpt lat="34.7931561" lon="32.9158673">
<ele>483.7</ele>
<time>2015-04-30T12:35:24Z</time>
</trkpt>
<trkpt lat="34.7897488" lon="32.9160878">
<ele>467.6</ele>
<time>2015-04-30T12:36:08Z</time>
</trkpt>
<trkpt lat="34.7891340" lon="32.9159114">
<ele>477.2</ele>
<time>2015-04-30T12:36:15Z</time>
</trkpt>
<trkpt lat="34.7880799" lon="32.9152152">
<ele>470.0</ele>
<time>2015-04-30T12:36:31Z</time>
</trkpt>
<trkpt lat="34.7875949" lon="32.9151339">
<ele>464.9</ele>
<time>2015-04-30T12:36:38Z</time>
</trkpt>
<trkpt lat="34.7859930" lon="32.9159544">
<ele>459.8</ele>
<time>2015-04-30T12:37:01Z</time>
</trkpt>
<trkpt lat="34.7852739" lon="32.9161099">
<ele>463.6</ele>
<time>2015-04-30T12:37:14Z</time>
</trkpt>
<trkpt lat="34.7824020" lon="32.9153770">
<ele>441.1</ele>
<time>2015-04-30T12:38:44Z</time>
</trkpt>
<trkpt lat="34.7795625" lon="32.9155516">
<ele>431.3</ele>
<time>2015-04-30T12:39:12Z</time>
</trkpt>
<trkpt lat="34.7784876" lon="32.9146384">
<ele>428.7</ele>
<time>2015-04-30T12:39:33Z</time>
</trkpt>
<trkpt lat="34.7757484" lon="32.9153089">
<ele>403.9</ele>
<time>2015-04-30T12:40:00Z</time>
</trkpt>
<trkpt lat="34.7742017" lon="32.9146333">
<ele>395.7</ele>
<time>2015-04-30T12:40:17Z</time>
</trkpt>
<trkpt lat="34.7716287" lon="32.9147822">
<ele>375.2</ele>
<time>2015-04-30T12:40:41Z</time>
</trkpt>
<trkpt lat="34.7706779" lon="32.9158101">
<ele>361.3</ele>
<time>2015-04-30T12:40:52Z</time>
</trkpt>
<trkpt lat="34.7692894" lon="32.9167861">
<ele>353.4</ele>
<time>2015-04-30T12:41:06Z</time>
</trkpt>
<trkpt lat="34.7684502" lon="32.9180741">
<ele>338.7</ele>
<time>2015-04-30T12:41:17Z</time>
</trkpt>
<trkpt lat="34.7630841" lon="32.9231774">
<ele>284.3</ele>
<time>2015-04-30T12:42:16Z</time>
</trkpt>
<trkpt lat="34.7620034" lon="32.9247639">
<ele>268.7</ele>
<time>2015-04-30T12:42:34Z</time>
</trkpt>
<trkpt lat="34.7616885" lon="32.9260556">
<ele>265.0</ele>
<time>2015-04-30T12:42:58Z</time>
</trkpt>
<trkpt lat="34.7618161" lon="32.9277360">
<ele>261.0</ele>
<time>2015-04-30T12:43:17Z</time>
</trkpt>
<trkpt lat="34.7622932" lon="32.9287615">
<ele>261.3</ele>
<time>2015-04-30T12:43:31Z</time>
</trkpt>
<trkpt lat="34.7673008" lon="32.9352968">
<ele>247.8</ele>
<time>2015-04-30T12:46:15Z</time>
</trkpt>
<trkpt lat="34.7681042" lon="32.9365265">
<ele>249.9</ele>
<time>2015-04-30T12:46:32Z</time>
</trkpt>
<trkpt lat="34.7684777" lon="32.9374237">
<ele>249.4</ele>
<time>2015-04-30T12:46:47Z</time>
</trkpt>
<trkpt lat="34.7689080" lon="32.9393459">
<ele>265.0</ele>
<time>2015-04-30T12:48:03Z</time>
</trkpt>
<trkpt lat="34.7689836" lon="32.9410568">
<ele>280.9</ele>
<time>2015-04-30T12:50:01Z</time>
</trkpt>
<trkpt lat="34.7684540" lon="32.9433010">
<ele>297.4</ele>
<time>2015-04-30T12:52:36Z</time>
</trkpt>
<trkpt lat="34.7677306" lon="32.9447314">
<ele>309.3</ele>
<time>2015-04-30T12:54:20Z</time>
</trkpt>
<trkpt lat="34.7660221" lon="32.9472469">
<ele>329.4</ele>
<time>2015-04-30T13:02:52Z</time>
</trkpt>
<trkpt lat="34.7599111" lon="32.9525740">
<ele>300.7</ele>
<time>2015-04-30T13:05:17Z</time>
</trkpt>
<trkpt lat="34.7586460" lon="32.9541448">
<ele>285.9</ele>
<time>2015-04-30T13:05:30Z</time>
</trkpt>
<trkpt lat="34.7556184" lon="32.9592927">
<ele>260.6</ele>
<time>2015-04-30T13:06:08Z</time>
</trkpt>
<trkpt lat="34.7517920" lon="32.9686736">
<ele>222.8</ele>
<time>2015-04-30T13:07:20Z</time>
</trkpt>
<trkpt lat="34.7472496" lon="32.9737148">
<ele>194.4</ele>
<time>2015-04-30T13:08:17Z</time>
</trkpt>
<trkpt lat="34.7459721" lon="32.9754321">
<ele>189.2</ele>
<time>2015-04-30T13:08:32Z</time>
</trkpt>
<trkpt lat="34.7454756" lon="32.9767516">
<ele>198.0</ele>
<time>2015-04-30T13:08:49Z</time>
</trkpt>
<trkpt lat="34.7444220" lon="32.9829590">
<ele>218.6</ele>
<time>2015-04-30T13:12:35Z</time>
</trkpt>
<trkpt lat="34.7438751" lon="32.9842917">
<ele>216.0</ele>
<time>2015-04-30T13:13:01Z</time>
</trkpt>
<trkpt lat="34.7428398" lon="32.9853026">
<ele>208.9</ele>
<time>2015-04-30T13:13:25Z</time>
</trkpt>
<trkpt lat="34.7432244" lon="32.9852614">
<ele>211.2</ele>
<time>2015-04-30T13:13:48Z</time>
</trkpt>
<trkpt lat="34.7418889" lon="32.9856328">
<ele>204.3</ele>
<time>2015-04-30T13:17:36Z</time>
</trkpt>
<trkpt lat="34.7368159" lon="32.9863723">
<ele>183.0</ele>
<time>2015-04-30T13:18:54Z</time>
</trkpt>
<trkpt lat="34.7335875" lon="32.9881634">
<ele>162.8</ele>
<time>2015-04-30T13:19:31Z</time>
</trkpt>
<trkpt lat="34.7324958" lon="32.9885304">
<ele>163.1</ele>
<time>2015-04-30T13:19:48Z</time>
</trkpt>
<trkpt lat="34.7311559" lon="32.9885315">
<ele>161.9</ele>
<time>2015-04-30T13:20:07Z</time>
</trkpt>
<trkpt lat="34.7275408" lon="32.9875767">
<ele>157.1</ele>
<time>2015-04-30T13:21:13Z</time>
</trkpt>
<trkpt lat="34.7247177" lon="32.9875328">
<ele>157.0</ele>
<time>2015-04-30T13:21:58Z</time>
</trkpt>
<trkpt lat="34.7234334" lon="32.9877725">
<ele>156.4</ele>
<time>2015-04-30T13:22:19Z</time>
</trkpt>
<trkpt lat="34.7221371" lon="32.9882612">
<ele>148.7</ele>
<time>2015-04-30T13:22:42Z</time>
</trkpt>
<trkpt lat="34.7208497" lon="32.9889575">
<ele>150.9</ele>
<time>2015-04-30T13:23:05Z</time>
</trkpt>
<trkpt lat="34.7194890" lon="32.9903213">
<ele>146.6</ele>
<time>2015-04-30T13:23:34Z</time>
</trkpt>
<trkpt lat="34.7175812" lon="32.9914369">
<ele>138.5</ele>
<time>2015-04-30T13:24:09Z</time>
</trkpt>
<trkpt lat="34.7168107" lon="32.9926494">
<ele>128.4</ele>
<time>2015-04-30T13:24:30Z</time>
</trkpt>
<trkpt lat="34.7157689" lon="32.9952777">
<ele>117.3</ele>
<time>2015-04-30T13:24:55Z</time>
</trkpt>
<trkpt lat="34.7146232" lon="32.9965653">
<ele>108.0</ele>
<time>2015-04-30T13:25:10Z</time>
</trkpt>
<trkpt lat="34.7093466" lon="33.0000325">
<ele>89.5</ele>
<time>2015-04-30T13:26:34Z</time>
</trkpt>
<trkpt lat="34.7054161" lon="33.0032495">
<ele>79.2</ele>
<time>2015-04-30T13:27:34Z</time>
</trkpt>
<trkpt lat="34.7028905" lon="33.0045597">
<ele>75.7</ele>
<time>2015-04-30T13:28:17Z</time>
</trkpt>
<trkpt lat="34.7021438" lon="33.0051507">
<ele>73.1</ele>
<time>2015-04-30T13:28:31Z</time>
</trkpt>
<trkpt lat="34.7001516" lon="33.0079003">
<ele>64.8</ele>
<time>2015-04-30T13:30:00Z</time>
</trkpt>
<trkpt lat="34.6981270" lon="33.0098850">
<ele>58.9</ele>
<time>2015-04-30T13:30:49Z</time>
</trkpt>
<trkpt lat="34.6970095" lon="33.0117922">
<ele>54.4</ele>
<time>2015-04-30T13:31:18Z</time>
</trkpt>
<trkpt lat="34.6948552" lon="33.0134603">
<ele>50.4</ele>
<time>2015-04-30T13:32:16Z</time>
</trkpt>
<trkpt lat="34.6943780" lon="33.0142100">
<ele>52.4</ele>
<time>2015-04-30T13:32:41Z</time>
</trkpt>
<trkpt lat="34.6937882" lon="33.0144443">
<ele>50.9</ele>
<time>2015-04-30T13:32:53Z</time>
</trkpt>
<trkpt lat="34.6929348" lon="33.0151898">
<ele>50.5</ele>
<time>2015-04-30T13:34:01Z</time>
</trkpt>
<trkpt lat="34.6930935" lon="33.0145111">
<ele>50.9</ele>
<time>2015-04-30T13:34:41Z</time>
</trkpt>
<trkpt lat="34.6926489" lon="33.0140331">
<ele>47.5</ele>
<time>2015-04-30T13:34:57Z</time>
</trkpt>
<trkpt lat="34.6923159" lon="33.0140197">
<ele>46.0</ele>
<time>2015-04-30T13:35:07Z</time>
</trkpt>
<trkpt lat="34.6918374" lon="33.0144410">
<ele>44.0</ele>
<time>2015-04-30T13:35:20Z</time>
</trkpt>
<trkpt lat="34.6885271" lon="33.0117796">
<ele>47.3</ele>
<time>2015-04-30T13:38:21Z</time>
</trkpt>
<trkpt lat="34.6881723" lon="33.0119898">
<ele>47.3</ele>
<time>2015-04-30T13:38:32Z</time>
</trkpt>
<trkpt lat="34.6877114" lon="33.0117011">
<ele>45.3</ele>
<time>2015-04-30T13:38:50Z</time>
</trkpt>
<trkpt lat="34.6862060" lon="33.0143061">
<ele>40.9</ele>
<time>2015-04-30T13:39:56Z</time>
</trkpt>
<trkpt lat="34.6851684" lon="33.0165794">
<ele>36.1</ele>
<time>2015-04-30T13:41:31Z</time>
</trkpt>
<trkpt lat="34.6837875" lon="33.0183635">
<ele>35.1</ele>
<time>2015-04-30T13:42:45Z</time>
</trkpt>
<trkpt lat="34.6830050" lon="33.0191270">
<ele>33.8</ele>
<time>2015-04-30T13:43:05Z</time>
</trkpt>
<trkpt lat="34.6825940" lon="33.0202003">
<ele>32.6</ele>
<time>2015-04-30T13:43:23Z</time>
</trkpt>
<trkpt lat="34.6822147" lon="33.0220973">
<ele>31.3</ele>
<time>2015-04-30T13:43:53Z</time>
</trkpt>
<trkpt lat="34.6817697" lon="33.0232136">
<ele>30.3</ele>
<time>2015-04-30T13:44:14Z</time>
</trkpt>
<trkpt lat="34.6783975" lon="33.0285462">
<ele>22.2</ele>
<time>2015-04-30T13:47:23Z</time>
</trkpt>
<trkpt lat="34.6779157" lon="33.0288277">
<ele>19.4</ele>
<time>2015-04-30T13:47:33Z</time>
</trkpt>
<trkpt lat="34.6740841" lon="33.0288702">
<ele>14.3</ele>
<time>2015-04-30T13:49:41Z</time>
</trkpt>
<trkpt lat="34.6711566" lon="33.0297487">
<ele>11.0</ele>
<time>2015-04-30T13:50:55Z</time>
</trkpt>
<trkpt lat="34.6713155" lon="33.0303190">
<ele>11.4</ele>
<time>2015-04-30T13:51:13Z</time>
</trkpt>
<trkpt lat="34.6705334" lon="33.0308664">
<ele>8.4</ele>
<time>2015-04-30T13:51:37Z</time>
</trkpt>
<trkpt lat="34.6720016" lon="33.0340432">
<ele>8.7</ele>
<time>2015-04-30T13:53:44Z</time>
</trkpt>
<trkpt lat="34.6718346" lon="33.0372475">
<ele>5.8</ele>
<time>2015-04-30T13:54:41Z</time>
</trkpt>
<trkpt lat="34.6720164" lon="33.0383562">
<ele>5.4</ele>
<time>2015-04-30T13:55:09Z</time>
</trkpt>
<trkpt lat="34.6715215" lon="33.0404903">
<ele>2.9</ele>
<time>2015-04-30T13:56:01Z</time>
</trkpt>
<trkpt lat="34.6718220" lon="33.0415093">
<ele>5.9</ele>
<time>2015-04-30T13:56:44Z</time>
</trkpt>
<trkpt lat="34.6717011" lon="33.0420988">
<ele>5.6</ele>
<time>2015-04-30T13:57:41Z</time>
</trkpt>
<trkpt lat="34.6717920" lon="33.0422455">
<ele>5.3</ele>
<time>2015-04-30T13:58:06Z</time>
</trkpt>
<trkpt lat="34.6725016" lon="33.0422500">
<ele>6.8</ele>
<time>2015-04-30T13:58:52Z</time>
</trkpt>
<trkpt lat="34.6732254" lon="33.0420747">
<ele>6.9</ele>
<time>2015-04-30T13:59:56Z</time>
</trkpt>
<trkpt lat="34.6743162" lon="33.0451367">
<ele>11.1</ele>
<time>2015-04-30T14:11:00Z</time>
</trkpt>
<trkpt lat="34.6740117" lon="33.0442623">
<ele>9.4</ele>
<time>2015-04-30T14:26:28Z</time>
</trkpt>
<trkpt lat="34.6737655" lon="33.0440482">
<ele>7.2</ele>
<time>2015-04-30T14:26:39Z</time>
</trkpt>
<trkpt lat="34.6726966" lon="33.0441636">
<ele>3.2</ele>
<time>2015-04-30T14:27:52Z</time>
</trkpt>
<trkpt lat="34.6717852" lon="33.0425681">
<ele>6.0</ele>
<time>2015-04-30T14:29:14Z</time>
</trkpt>
<trkpt lat="34.6718005" lon="33.0423553">
<ele>4.9</ele>
<time>2015-04-30T14:29:38Z</time>
</trkpt>
<trkpt lat="34.6715793" lon="33.0422437">
<ele>5.0</ele>
<time>2015-04-30T14:30:40Z</time>
</trkpt>
</trkseg>
</trk>
</gpx>